Time;durP1;ratioP1;P1;durP2;ratioP2;P2;SDS_P1;SDS_P2;PMS_P1;PMS_P2;Temp;Humidity;BMP_temperature;BMP_pressure;BME280_temperature;BME280_humidity;BME280_pressure;Samples;Min_cycle;Max_cycle;Signal;HPM_P1;HPM_P2
2022/04/06 00:00:40;;;;;;;6.65;1.88;;;;;;;;;;5096126;27;20046;-67
2022/04/06 00:03:06;;;;;;;5.90;1.60;;;;;;;;;;5123521;27;20041;-67
2022/04/06 00:05:32;;;;;;;4.70;1.58;;;;;;;;;;5140027;27;20046;-67
2022/04/06 00:07:58;;;;;;;8.27;1.90;;;;;;;;;;5142391;27;20511;-67
2022/04/06 00:10:24;;;;;;;5.78;1.90;;;;;;;;;;5120872;27;20035;-67
2022/04/06 00:12:50;;;;;;;4.97;1.80;;;;;;;;;;5123978;27;20499;-67
2022/04/06 00:15:16;;;;;;;7.57;1.88;;;;;;;;;;5114781;27;20114;-67
2022/04/06 00:17:43;;;;;;;6.07;1.60;;;;;;;;;;5103002;27;20419;-67
2022/04/06 00:20:09;;;;;;;9.13;2.00;;;;;;;;;;5108576;27;20101;-67
2022/04/06 00:22:35;;;;;;;7.82;1.70;;;;;;;;;;5123023;27;20038;-67
2022/04/06 00:25:01;;;;;;;8.13;2.20;;;;;;;;;;5120911;27;20034;-67
2022/04/06 00:27:27;;;;;;;7.57;2.05;;;;;;;;;;5102820;27;20119;-66
2022/04/06 00:29:53;;;;;;;8.93;2.33;;;;;;;;;;5105724;27;20487;-66
2022/04/06 00:32:20;;;;;;;8.70;2.67;;;;;;;;;;5123312;27;20152;-66
2022/04/06 00:37:30;;;;;;;;;;;;;;;;;;5083031;28;20513;-66
2022/04/06 00:39:56;;;;;;;5.78;1.80;;;;;;;;;;5095277;27;20015;-66
2022/04/06 00:42:22;;;;;;;8.05;2.13;;;;;;;;;;5102136;27;20195;-66
2022/04/06 00:44:48;;;;;;;5.78;2.00;;;;;;;;;;5105470;27;20120;-66
2022/04/06 00:47:14;;;;;;;6.22;2.10;;;;;;;;;;5123029;27;20062;-66
2022/04/06 00:49:40;;;;;;;6.85;2.10;;;;;;;;;;5131809;27;20036;-67
2022/04/06 00:52:07;;;;;;;7.07;2.30;;;;;;;;;;5105220;27;20564;-67
2022/04/06 00:54:33;;;;;;;8.10;2.70;;;;;;;;;;5120489;27;20581;-66
2022/04/06 00:56:59;;;;;;;7.93;2.40;;;;;;;;;;5105244;27;20042;-66
2022/04/06 00:59:29;;;;;;;5.88;2.20;;;;;;;;;;5120637;27;20238;-66
2022/04/06 01:01:56;;;;;;;7.18;2.67;;;;;;;;;;5120253;27;20210;-66
2022/04/06 01:04:22;;;;;;;7.53;2.08;;;;;;;;;;5120212;27;20538;-66
2022/04/06 01:06:48;;;;;;;6.90;2.35;;;;;;;;;;5121719;27;20039;-66
2022/04/06 01:09:18;;;;;;;7.25;2.55;;;;;;;;;;5122050;27;20034;-66
2022/04/06 01:11:45;;;;;;;7.80;2.70;;;;;;;;;;5120847;27;20046;-66
2022/04/06 01:14:12;;;;;;;8.95;2.63;;;;;;;;;;5104568;27;20087;-66
2022/04/06 01:16:38;;;;;;;6.97;2.30;;;;;;;;;;5120355;27;20049;-66
2022/04/06 01:19:04;;;;;;;8.27;2.38;;;;;;;;;;5122013;27;20050;-66
2022/04/06 01:21:30;;;;;;;6.75;2.53;;;;;;;;;;5119910;27;20161;-65
2022/04/06 01:23:56;;;;;;;9.43;2.95;;;;;;;;;;5121685;27;20049;-66
2022/04/06 01:26:22;;;;;;;7.07;2.78;;;;;;;;;;5118365;27;20054;-66
2022/04/06 01:28:48;;;;;;;7.65;2.50;;;;;;;;;;5141034;27;20410;-66
2022/04/06 01:31:15;;;;;;;8.48;2.58;;;;;;;;;;5120198;27;20043;-66
2022/04/06 01:33:41;;;;;;;9.93;2.88;;;;;;;;;;5121700;27;20043;-66
2022/04/06 01:36:07;;;;;;;9.52;2.30;;;;;;;;;;5113966;27;20116;-66
2022/04/06 01:38:34;;;;;;;7.15;2.13;;;;;;;;;;5112108;27;20031;-65
2022/04/06 01:41:00;;;;;;;7.78;2.42;;;;;;;;;;5096755;27;20046;-65
2022/04/06 01:43:26;;;;;;;8.90;2.90;;;;;;;;;;5101937;27;20067;-66
2022/04/06 01:45:52;;;;;;;7.38;2.63;;;;;;;;;;5071773;28;20054;-66
2022/04/06 01:48:19;;;;;;;7.78;2.50;;;;;;;;;;5064132;28;20149;-66
2022/04/06 01:53:30;;;;;;;6.65;2.00;;;;;;;;;;5121712;27;20376;-66
2022/04/06 01:55:56;;;;;;;8.25;2.42;;;;;;;;;;5119269;27;20132;-66
2022/04/06 01:58:23;;;;;;;7.38;2.13;;;;;;;;;;5121357;27;20113;-66
2022/04/06 02:00:49;;;;;;;7.85;2.42;;;;;;;;;;5138070;27;20054;-66
2022/04/06 02:03:15;;;;;;;7.70;2.58;;;;;;;;;;5104488;27;20038;-66
2022/04/06 02:05:41;;;;;;;8.25;2.40;;;;;;;;;;5141413;27;20107;-66
2022/04/06 02:08:07;;;;;;;7.63;2.40;;;;;;;;;;5126033;27;20038;-66
2022/04/06 02:10:33;;;;;;;8.10;2.63;;;;;;;;;;5112605;27;20043;-65
2022/04/06 02:12:59;;;;;;;7.95;2.38;;;;;;;;;;5105013;27;20378;-66
2022/04/06 02:15:27;;;;;;;7.35;2.20;;;;;;;;;;5083285;28;20490;-66
2022/04/06 02:17:54;;;;;;;7.97;2.50;;;;;;;;;;5087437;27;20057;-66
2022/04/06 02:20:20;;;;;;;7.60;2.65;;;;;;;;;;5092630;27;20065;-66
2022/04/06 02:22:46;;;;;;;7.80;2.70;;;;;;;;;;5104500;27;20075;-66
2022/04/06 02:25:13;;;;;;;8.55;2.28;;;;;;;;;;5110596;27;20134;-66
2022/04/06 02:27:50;;;;;;;8.48;2.40;;;;;;;;;;5124752;27;20075;-66
2022/04/06 02:30:17;;;;;;;7.50;2.10;;;;;;;;;;5142015;27;20027;-66
2022/04/06 02:32:43;;;;;;;7.50;2.15;;;;;;;;;;5144078;27;20038;-67
2022/04/06 02:35:09;;;;;;;7.38;2.03;;;;;;;;;;5123289;27;20041;-66
2022/04/06 02:37:36;;;;;;;6.97;2.40;;;;;;;;;;5115245;27;20043;-66
2022/04/06 02:40:04;;;;;;;8.88;2.50;;;;;;;;;;5108773;27;20037;-66
2022/04/06 02:42:30;;;;;;;7.50;2.28;;;;;;;;;;5125168;27;20052;-66
2022/04/06 02:44:56;;;;;;;7.47;2.42;;;;;;;;;;5115162;27;20063;-66
2022/04/06 02:47:22;;;;;;;9.00;2.60;;;;;;;;;;5084603;28;20078;-66
2022/04/06 02:49:48;;;;;;;6.60;2.10;;;;;;;;;;5091667;27;20049;-66
2022/04/06 02:52:14;;;;;;;6.55;1.88;;;;;;;;;;5124491;27;20447;-66
2022/04/06 02:54:40;;;;;;;6.10;2.28;;;;;;;;;;5122860;27;20428;-66
2022/04/06 02:57:06;;;;;;;9.00;2.10;;;;;;;;;;5143557;27;20034;-66
2022/04/06 02:59:32;;;;;;;6.22;1.95;;;;;;;;;;5107251;27;20392;-66
2022/04/06 03:01:58;;;;;;;6.20;2.00;;;;;;;;;;5124855;27;20058;-66
2022/04/06 03:04:24;;;;;;;7.80;1.90;;;;;;;;;;5123422;27;20479;-66
2022/04/06 03:06:50;;;;;;;7.65;2.03;;;;;;;;;;5124467;27;20038;-66
2022/04/06 03:09:16;;;;;;;8.70;2.00;;;;;;;;;;5124974;27;20078;-67
2022/04/06 03:11:43;;;;;;;6.13;2.03;;;;;;;;;;5106172;27;20039;-66
2022/04/06 03:14:09;;;;;;;8.32;2.08;;;;;;;;;;5124140;27;20587;-66
2022/04/06 03:16:35;;;;;;;7.38;2.05;;;;;;;;;;5141050;27;20102;-66
2022/04/06 03:19:01;;;;;;;7.32;2.35;;;;;;;;;;5124206;27;20407;-66
2022/04/06 03:21:27;;;;;;;6.75;2.08;;;;;;;;;;5122660;27;20046;-67
2022/04/06 03:23:53;;;;;;;6.05;1.58;;;;;;;;;;5124452;27;20050;-67
2022/04/06 03:26:19;;;;;;;7.03;2.03;;;;;;;;;;5122144;27;20043;-67
2022/04/06 03:28:45;;;;;;;8.38;2.28;;;;;;;;;;5124116;27;20053;-67
2022/04/06 03:31:11;;;;;;;6.75;2.05;;;;;;;;;;5122651;27;20515;-67
2022/04/06 03:33:37;;;;;;;5.88;1.55;;;;;;;;;;5124309;27;20039;-67
2022/04/06 03:36:03;;;;;;;6.82;1.70;;;;;;;;;;5122032;27;20050;-67
2022/04/06 03:38:29;;;;;;;8.45;2.30;;;;;;;;;;5124048;27;20042;-66
2022/04/06 03:40:55;;;;;;;8.55;2.05;;;;;;;;;;5121965;27;20065;-67
2022/04/06 03:43:22;;;;;;;7.18;2.08;;;;;;;;;;5124007;27;20081;-67
2022/04/06 03:45:48;;;;;;;6.90;2.00;;;;;;;;;;5141222;27;20521;-67
2022/04/06 03:48:14;;;;;;;6.20;1.70;;;;;;;;;;5123968;27;20045;-67
2022/04/06 03:50:40;;;;;;;7.22;1.70;;;;;;;;;;5094183;27;20314;-66
2022/04/06 03:53:06;;;;;;;7.75;1.67;;;;;;;;;;5103653;27;20405;-67
2022/04/06 03:55:32;;;;;;;6.97;1.88;;;;;;;;;;5111557;27;20042;-68
2022/04/06 03:57:58;;;;;;;8.00;1.75;;;;;;;;;;5123849;27;20220;-67
2022/04/06 04:00:24;;;;;;;6.75;1.80;;;;;;;;;;5122083;27;20130;-67
2022/04/06 04:02:50;;;;;;;6.60;2.03;;;;;;;;;;5106810;27;20514;-67
2022/04/06 04:05:17;;;;;;;6.35;1.80;;;;;;;;;;5121664;27;20039;-67
2022/04/06 04:07:46;;;;;;;6.10;1.92;;;;;;;;;;5123780;27;20042;-67
2022/04/06 04:10:14;;;;;;;7.03;1.77;;;;;;;;;;5122126;27;20030;-67
2022/04/06 04:12:40;;;;;;;7.80;2.22;;;;;;;;;;5142601;27;20152;-67
2022/04/06 04:15:07;;;;;;;8.35;2.10;;;;;;;;;;5121285;27;20083;-67
2022/04/06 04:17:33;;;;;;;7.85;2.33;;;;;;;;;;5123345;27;20046;-67
2022/04/06 04:19:59;;;;;;;6.05;2.08;;;;;;;;;;5113014;27;20408;-67
2022/04/06 04:22:25;;;;;;;6.07;1.83;;;;;;;;;;5081669;28;20075;-67
2022/04/06 04:24:51;;;;;;;7.55;2.15;;;;;;;;;;5100530;27;20114;-67
2022/04/06 04:27:17;;;;;;;7.47;2.00;;;;;;;;;;5098807;28;20515;-67
2022/04/06 04:29:43;;;;;;;6.65;2.20;;;;;;;;;;5105292;27;20049;-67
2022/04/06 04:32:10;;;;;;;8.57;2.20;;;;;;;;;;5123056;27;20472;-67
2022/04/06 04:34:36;;;;;;;7.60;2.20;;;;;;;;;;5103519;27;20047;-67
2022/04/06 04:37:02;;;;;;;6.38;2.20;;;;;;;;;;5142272;27;20050;-67
2022/04/06 04:39:28;;;;;;;7.57;2.65;;;;;;;;;;5120674;27;20100;-67
2022/04/06 04:41:54;;;;;;;7.53;2.35;;;;;;;;;;5122305;27;20182;-67
2022/04/06 04:44:20;;;;;;;9.90;3.08;;;;;;;;;;5121311;27;20513;-66
2022/04/06 04:46:46;;;;;;;8.30;2.58;;;;;;;;;;5084380;27;20051;-66
2022/04/06 04:49:13;;;;;;;7.53;2.10;;;;;;;;;;5093377;27;20107;-66
2022/04/06 04:51:39;;;;;;;6.93;1.95;;;;;;;;;;5098753;27;20075;-66
2022/04/06 04:54:05;;;;;;;7.63;2.25;;;;;;;;;;5102307;27;20039;-67
2022/04/06 04:56:32;;;;;;;7.45;2.35;;;;;;;;;;5118500;27;20045;-66
2022/04/06 04:58:58;;;;;;;9.10;2.63;;;;;;;;;;5105578;27;20064;-66
2022/04/06 05:01:25;;;;;;;7.65;2.17;;;;;;;;;;5103875;27;20038;-66
2022/04/06 05:03:51;;;;;;;9.25;2.70;;;;;;;;;;5122387;27;20075;-66
2022/04/06 05:06:17;;;;;;;8.27;2.50;;;;;;;;;;5120467;27;20098;-66
2022/04/06 05:08:43;;;;;;;6.70;2.03;;;;;;;;;;5122649;27;20042;-66
2022/04/06 05:11:10;;;;;;;8.57;2.28;;;;;;;;;;5137877;27;20522;-66
2022/04/06 05:13:37;;;;;;;7.85;2.00;;;;;;;;;;5141111;27;20069;-66
2022/04/06 05:16:03;;;;;;;8.23;2.45;;;;;;;;;;5138782;27;20388;-66
2022/04/06 05:18:29;;;;;;;6.60;1.95;;;;;;;;;;5122151;27;20062;-66
2022/04/06 05:20:56;;;;;;;9.10;2.53;;;;;;;;;;5090205;27;20038;-66
2022/04/06 05:23:22;;;;;;;7.88;2.28;;;;;;;;;;5090251;27;20057;-66
2022/04/06 05:25:48;;;;;;;8.77;2.20;;;;;;;;;;5048917;27;20078;-66
2022/04/06 05:28:15;;;;;;;6.80;2.00;;;;;;;;;;5085166;27;20067;-66
2022/04/06 05:30:42;;;;;;;6.10;1.88;;;;;;;;;;5111167;27;20038;-66
2022/04/06 05:33:08;;;;;;;6.20;1.95;;;;;;;;;;5124428;27;20391;-66
2022/04/06 05:35:34;;;;;;;7.03;1.98;;;;;;;;;;5101030;27;20039;-66
2022/04/06 05:38:00;;;;;;;7.15;2.05;;;;;;;;;;5101369;27;20079;-66
2022/04/06 05:40:27;;;;;;;10.05;1.90;;;;;;;;;;5107645;27;20054;-66
2022/04/06 05:42:53;;;;;;;7.35;2.00;;;;;;;;;;5139808;27;20061;-66
2022/04/06 05:45:19;;;;;;;6.38;1.70;;;;;;;;;;5112025;27;20494;-67
2022/04/06 05:47:45;;;;;;;6.60;1.85;;;;;;;;;;5121533;27;20510;-66
2022/04/06 05:50:12;;;;;;;7.88;2.10;;;;;;;;;;5119438;27;20114;-67
2022/04/06 05:52:38;;;;;;;7.00;2.20;;;;;;;;;;5121435;27;20491;-67
2022/04/06 05:55:04;;;;;;;11.05;2.05;;;;;;;;;;5117226;27;20042;-66
2022/04/06 05:57:30;;;;;;;7.97;2.10;;;;;;;;;;5088601;28;20058;-66
2022/04/06 05:59:56;;;;;;;8.80;2.13;;;;;;;;;;5092354;27;20043;-67
2022/04/06 06:02:25;;;;;;;8.55;1.90;;;;;;;;;;5095032;28;20036;-67
2022/04/06 06:04:54;;;;;;;7.97;2.20;;;;;;;;;;5090657;27;20314;-68
2022/04/06 06:07:21;;;;;;;8.27;1.85;;;;;;;;;;5089372;28;20035;-68
2022/04/06 06:09:47;;;;;;;8.57;2.20;;;;;;;;;;5102362;27;20041;-68
2022/04/06 06:12:13;;;;;;;7.05;2.05;;;;;;;;;;5122029;27;20048;-70
2022/04/06 06:14:39;;;;;;;8.18;1.85;;;;;;;;;;5103151;27;20043;-69
2022/04/06 06:17:05;;;;;;;10.93;2.53;;;;;;;;;;5123062;27;20595;-67
2022/04/06 06:19:31;;;;;;;11.52;2.47;;;;;;;;;;5120066;27;20707;-67
2022/04/06 06:21:57;;;;;;;13.40;2.58;;;;;;;;;;5122762;27;20222;-67
2022/04/06 06:24:24;;;;;;;9.48;2.40;;;;;;;;;;5121367;27;20053;-67
2022/04/06 06:26:50;;;;;;;11.43;2.58;;;;;;;;;;5100321;28;20103;-66
2022/04/06 06:29:16;;;;;;;9.60;1.88;;;;;;;;;;5100412;28;20079;-66
2022/04/06 06:31:42;;;;;;;9.35;2.20;;;;;;;;;;5120014;27;20436;-66
2022/04/06 06:34:09;;;;;;;10.30;2.10;;;;;;;;;;5104091;27;20077;-66
2022/04/06 06:36:35;;;;;;;10.48;2.25;;;;;;;;;;5118935;27;20047;-66
2022/04/06 06:39:01;;;;;;;10.10;2.10;;;;;;;;;;5121052;27;20085;-66
2022/04/06 06:41:27;;;;;;;9.48;1.80;;;;;;;;;;5117017;27;20054;-67
2022/04/06 06:43:54;;;;;;;9.10;2.20;;;;;;;;;;5104240;27;20325;-67
2022/04/06 06:46:21;;;;;;;10.07;1.80;;;;;;;;;;5118760;27;20061;-67
2022/04/06 06:48:47;;;;;;;7.45;2.10;;;;;;;;;;5121161;27;20064;-67
2022/04/06 06:51:14;;;;;;;6.82;1.60;;;;;;;;;;5103662;27;20161;-66
2022/04/06 06:53:40;;;;;;;7.40;1.90;;;;;;;;;;5124888;27;20114;-66
2022/04/06 06:56:06;;;;;;;9.00;2.05;;;;;;;;;;5105415;27;20118;-66
2022/04/06 06:58:32;;;;;;;8.27;1.83;;;;;;;;;;5107458;27;20054;-66
2022/04/06 07:00:58;;;;;;;6.53;1.77;;;;;;;;;;5122680;27;20089;-66
2022/04/06 07:03:24;;;;;;;7.43;1.92;;;;;;;;;;5107908;27;20043;-66
2022/04/06 07:05:51;;;;;;;6.30;1.75;;;;;;;;;;5137013;27;20106;-67
2022/04/06 07:08:17;;;;;;;5.65;1.70;;;;;;;;;;5124657;27;20277;-66
2022/04/06 07:10:46;;;;;;;6.80;2.13;;;;;;;;;;5140650;27;20035;-67
2022/04/06 07:13:13;;;;;;;7.50;1.90;;;;;;;;;;5143309;27;20056;-67
2022/04/06 07:15:39;;;;;;;6.95;1.67;;;;;;;;;;5105923;27;20271;-66
2022/04/06 07:18:07;;;;;;;6.88;1.65;;;;;;;;;;5107693;27;20081;-67
2022/04/06 07:20:35;;;;;;;6.22;1.55;;;;;;;;;;5141275;27;20391;-66
2022/04/06 07:23:01;;;;;;;7.82;1.83;;;;;;;;;;5102671;27;20100;-66
2022/04/06 07:25:27;;;;;;;6.28;1.80;;;;;;;;;;5110739;27;20138;-66
2022/04/06 07:27:53;;;;;;;9.32;1.60;;;;;;;;;;5124141;27;20179;-66
2022/04/06 07:30:19;;;;;;;7.03;1.63;;;;;;;;;;5122635;27;20103;-66
2022/04/06 07:32:45;;;;;;;6.38;1.70;;;;;;;;;;5143622;27;20058;-66
2022/04/06 07:35:12;;;;;;;6.38;1.40;;;;;;;;;;5083946;28;20131;-66
2022/04/06 07:37:39;;;;;;;7.85;1.73;;;;;;;;;;5101591;28;20108;-66
2022/04/06 07:40:05;;;;;;;6.72;2.10;;;;;;;;;;5094000;27;20037;-66
2022/04/06 07:42:31;;;;;;;6.90;1.40;;;;;;;;;;5124197;27;20070;-66
2022/04/06 07:44:57;;;;;;;4.68;1.40;;;;;;;;;;5104998;27;20026;-67
2022/04/06 07:47:30;;;;;;;5.78;1.60;;;;;;;;;;5123714;27;20047;-66
2022/04/06 07:49:58;;;;;;;5.60;1.55;;;;;;;;;;5122241;27;20182;-66
2022/04/06 07:52:24;;;;;;;5.13;1.20;;;;;;;;;;5106051;27;20038;-67
2022/04/06 07:54:50;;;;;;;4.88;1.20;;;;;;;;;;5121734;27;20046;-66
2022/04/06 07:57:16;;;;;;;6.18;1.30;;;;;;;;;;5122175;27;20057;-66
2022/04/06 07:59:42;;;;;;;5.85;1.45;;;;;;;;;;5121319;27;20096;-66
2022/04/06 08:02:08;;;;;;;5.50;1.50;;;;;;;;;;5123084;27;20664;-66
2022/04/06 08:04:35;;;;;;;7.10;1.60;;;;;;;;;;5121692;27;20051;-66
2022/04/06 08:07:01;;;;;;;6.43;1.50;;;;;;;;;;5102260;27;20075;-66
2022/04/06 08:09:27;;;;;;;6.35;1.73;;;;;;;;;;5074706;27;20126;-66
2022/04/06 08:11:53;;;;;;;5.95;1.40;;;;;;;;;;5123152;27;20130;-66
2022/04/06 08:14:20;;;;;;;5.63;1.45;;;;;;;;;;5123382;27;20329;-67
2022/04/06 08:16:46;;;;;;;7.18;1.52;;;;;;;;;;5122419;27;20047;-66
2022/04/06 08:19:12;;;;;;;6.70;1.55;;;;;;;;;;5123365;27;20033;-66
2022/04/06 08:21:38;;;;;;;6.03;1.30;;;;;;;;;;5104902;27;20479;-66
2022/04/06 08:24:13;;;;;;;7.18;1.70;;;;;;;;;;5123277;27;20038;-66
2022/04/06 08:26:39;;;;;;;5.45;1.35;;;;;;;;;;5120283;27;20159;-66
2022/04/06 08:29:08;;;;;;;4.40;1.30;;;;;;;;;;5123034;27;20035;-66
2022/04/06 08:31:34;;;;;;;5.30;1.35;;;;;;;;;;5108427;27;20495;-66
2022/04/06 08:34:00;;;;;;;6.00;1.40;;;;;;;;;;5102619;27;20060;-66
2022/04/06 08:36:26;;;;;;;4.15;1.30;;;;;;;;;;5118604;27;20111;-66
2022/04/06 08:38:52;;;;;;;5.82;1.58;;;;;;;;;;5123089;27;20088;-65
2022/04/06 08:41:24;;;;;;;5.40;1.30;;;;;;;;;;5119616;27;20055;-66
2022/04/06 08:43:53;;;;;;;6.40;1.50;;;;;;;;;;5121973;27;20465;-66
2022/04/06 08:46:40;;;;;;;5.57;1.35;;;;;;;;;;5138872;27;20290;-65
2022/04/06 08:49:06;;;;;;;4.97;1.48;;;;;;;;;;5122581;27;20095;-66
2022/04/06 08:51:34;;;;;;;7.80;1.90;;;;;;;;;;5120298;27;20038;-66
2022/04/06 08:54:00;;;;;;;6.90;1.38;;;;;;;;;;5141335;27;20054;-66
2022/04/06 08:56:26;;;;;;;5.60;1.42;;;;;;;;;;5119679;27;20042;-66
2022/04/06 08:58:52;;;;;;;6.18;1.38;;;;;;;;;;5122500;27;20039;-67
2022/04/06 09:01:21;;;;;;;7.50;1.80;;;;;;;;;;5100943;27;20104;-66
2022/04/06 09:03:49;;;;;;;4.80;1.17;;;;;;;;;;5081617;28;20430;-66
2022/04/06 09:06:16;;;;;;;5.15;1.30;;;;;;;;;;5112531;27;20124;-66
2022/04/06 09:08:44;;;;;;;5.35;1.38;;;;;;;;;;5105431;27;20035;-66
2022/04/06 09:11:11;;;;;;;5.47;1.20;;;;;;;;;;5100825;27;20222;-67
2022/04/06 09:13:37;;;;;;;5.25;1.15;;;;;;;;;;5081388;28;20298;-66
2022/04/06 09:16:04;;;;;;;5.53;1.50;;;;;;;;;;5099182;27;20046;-66
2022/04/06 09:18:34;;;;;;;4.18;1.15;;;;;;;;;;5064206;28;20269;-65
2022/04/06 09:21:01;;;;;;;6.15;1.30;;;;;;;;;;5095612;27;20243;-66
2022/04/06 09:23:29;;;;;;;4.78;1.30;;;;;;;;;;5101253;27;20066;-66
2022/04/06 09:25:55;;;;;;;6.32;1.17;;;;;;;;;;5113569;27;20502;-66
2022/04/06 09:28:21;;;;;;;5.82;1.67;;;;;;;;;;5122215;27;20046;-66
2022/04/06 09:30:47;;;;;;;5.95;1.40;;;;;;;;;;5103537;27;20277;-66
2022/04/06 09:33:18;;;;;;;6.97;1.70;;;;;;;;;;5122083;27;20119;-66
2022/04/06 09:35:45;;;;;;;5.20;1.33;;;;;;;;;;5119854;27;20277;-66
2022/04/06 09:38:20;;;;;;;5.50;1.33;;;;;;;;;;5122058;27;20042;-66
2022/04/06 09:40:46;;;;;;;7.15;1.48;;;;;;;;;;5119292;27;20495;-67
2022/04/06 09:43:26;;;;;;;6.45;1.40;;;;;;;;;;5121797;27;20129;-67
2022/04/06 09:48:53;;;;;;;6.03;1.30;;;;;;;;;;5140329;27;20481;-66
2022/04/06 09:51:20;;;;;;;5.43;1.50;;;;;;;;;;5137543;27;20117;-66
2022/04/06 09:53:48;;;;;;;6.03;1.52;;;;;;;;;;5121948;27;20061;-66
2022/04/06 09:56:15;;;;;;;7.45;1.45;;;;;;;;;;5119488;27;20404;-66
2022/04/06 09:58:41;;;;;;;5.88;1.42;;;;;;;;;;5121300;27;20636;-66
2022/04/06 10:01:07;;;;;;;4.93;1.30;;;;;;;;;;5101638;28;20051;-66
2022/04/06 10:03:38;;;;;;;6.07;1.38;;;;;;;;;;5063589;28;20529;-66
2022/04/06 10:06:04;;;;;;;5.03;1.30;;;;;;;;;;5099764;27;20143;-66
2022/04/06 10:08:32;;;;;;;5.78;1.50;;;;;;;;;;5099868;27;20433;-66
2022/04/06 10:10:59;;;;;;;8.25;1.50;;;;;;;;;;5098273;27;20111;-66
2022/04/06 10:13:26;;;;;;;5.50;1.50;;;;;;;;;;5119373;27;20039;-66
2022/04/06 10:15:52;;;;;;;5.47;1.20;;;;;;;;;;5086063;27;20039;-66
2022/04/06 10:18:19;;;;;;;7.72;1.40;;;;;;;;;;5080973;28;20051;-66
2022/04/06 10:20:48;;;;;;;5.82;1.63;;;;;;;;;;5097150;27;20475;-66
2022/04/06 10:23:29;;;;;;;5.38;1.50;;;;;;;;;;5080691;28;20047;-66
2022/04/06 10:26:07;;;;;;;6.15;1.20;;;;;;;;;;5106600;27;20059;-66
2022/04/06 10:28:34;;;;;;;4.43;1.30;;;;;;;;;;5125537;27;20038;-66
2022/04/06 10:31:12;;;;;;;6.88;1.58;;;;;;;;;;5106836;27;20050;-66
2022/04/06 10:33:38;;;;;;;6.05;1.50;;;;;;;;;;5125844;27;20561;-67
2022/04/06 10:36:21;;;;;;;6.32;1.40;;;;;;;;;;5142065;27;20069;-67
2022/04/06 10:39:05;;;;;;;7.43;1.40;;;;;;;;;;5126302;27;20042;-67
2022/04/06 10:41:31;;;;;;;;;;;;;;;;;;5123260;27;20045;-66
2022/04/06 10:43:58;;;;;;;4.53;1.20;;;;;;;;;;5108237;27;19915;-67
2022/04/06 10:46:40;;;;;;;6.88;1.15;;;;;;;;;;5141408;27;20505;-66
2022/04/06 10:49:12;;;;;;;7.30;1.50;;;;;;;;;;5108122;27;20034;-66
2022/04/06 10:51:41;;;;;;;6.00;1.33;;;;;;;;;;5106114;27;20126;-67
2022/04/06 10:54:14;;;;;;;5.13;1.40;;;;;;;;;;5143423;27;20050;-66
2022/04/06 10:56:55;;;;;;;7.00;1.67;;;;;;;;;;5140153;27;20517;-66
2022/04/06 10:59:21;;;;;;;6.97;1.40;;;;;;;;;;5122800;27;20046;-66
2022/04/06 11:01:48;;;;;;;9.15;1.98;;;;;;;;;;5143327;27;20054;-66
2022/04/06 11:04:19;;;;;;;7.57;1.63;;;;;;;;;;5124708;27;20046;-66
2022/04/06 11:06:45;;;;;;;7.00;1.58;;;;;;;;;;5142002;27;20492;-67
2022/04/06 11:12:16;;;;;;;8.05;1.88;;;;;;;;;;5083157;28;20123;-66
2022/04/06 11:14:44;;;;;;;6.78;1.42;;;;;;;;;;5088699;27;20160;-66
2022/04/06 11:17:30;;;;;;;8.40;1.80;;;;;;;;;;5107347;27;20640;-66
2022/04/06 11:19:56;;;;;;;6.95;1.83;;;;;;;;;;5122723;27;20042;-66
2022/04/06 11:22:22;;;;;;;6.57;1.70;;;;;;;;;;5124276;27;20082;-66
2022/04/06 11:24:49;;;;;;;5.43;1.77;;;;;;;;;;5123016;27;20075;-66
2022/04/06 11:27:28;;;;;;;6.13;1.55;;;;;;;;;;5123696;27;20046;-66
2022/04/06 11:30:00;;;;;;;4.97;1.40;;;;;;;;;;5123245;27;20532;-67
2022/04/06 11:32:26;;;;;;;5.90;1.52;;;;;;;;;;5124483;27;20284;-66
2022/04/06 11:34:58;;;;;;;7.57;1.63;;;;;;;;;;5115174;27;20067;-66
2022/04/06 11:37:24;;;;;;;6.63;1.52;;;;;;;;;;5081711;28;20051;-67
2022/04/06 11:39:50;;;;;;;6.95;1.70;;;;;;;;;;5073644;27;20046;-66
2022/04/06 11:42:20;;;;;;;8.30;1.70;;;;;;;;;;5124150;27;20046;-66
2022/04/06 11:44:46;;;;;;;6.00;1.52;;;;;;;;;;5122842;27;20581;-66
2022/04/06 11:47:12;;;;;;;5.72;1.50;;;;;;;;;;5123856;27;20121;-66
2022/04/06 11:49:38;;;;;;;8.32;1.70;;;;;;;;;;5122554;27;20039;-66
2022/04/06 11:52:05;;;;;;;6.88;1.45;;;;;;;;;;5123540;27;20698;-66
2022/04/06 11:54:32;;;;;;;5.47;1.48;;;;;;;;;;5121817;27;20423;-66
2022/04/06 11:56:58;;;;;;;7.10;1.60;;;;;;;;;;5121604;27;20126;-66
2022/04/06 11:59:25;;;;;;;10.75;1.95;;;;;;;;;;5105250;27;20123;-66
2022/04/06 12:01:51;;;;;;;7.85;2.28;;;;;;;;;;5106644;27;20533;-66
2022/04/06 12:04:19;;;;;;;6.40;1.50;;;;;;;;;;5102328;27;20047;-67
2022/04/06 12:06:45;;;;;;;5.38;1.42;;;;;;;;;;5122482;27;20059;-66
2022/04/06 12:09:11;;;;;;;9.35;1.70;;;;;;;;;;5123399;27;20035;-66
2022/04/06 12:11:40;;;;;;;7.72;1.88;;;;;;;;;;5121140;27;20103;-66
2022/04/06 12:14:10;;;;;;;5.50;1.40;;;;;;;;;;5106090;27;20390;-66
2022/04/06 12:16:36;;;;;;;6.65;1.40;;;;;;;;;;5106114;27;20047;-66
2022/04/06 12:19:05;;;;;;;7.38;1.70;;;;;;;;;;5085709;27;20123;-66
2022/04/06 12:21:31;;;;;;;6.70;1.60;;;;;;;;;;5102353;27;20126;-66
2022/04/06 12:23:57;;;;;;;8.57;1.88;;;;;;;;;;5123231;27;20107;-67
2022/04/06 12:26:24;;;;;;;9.95;2.58;;;;;;;;;;5121091;27;20047;-66
2022/04/06 12:28:56;;;;;;;8.27;1.45;;;;;;;;;;5142010;27;20038;-66
2022/04/06 12:31:32;;;;;;;8.95;1.50;;;;;;;;;;5122281;27;20387;-66
2022/04/06 12:33:58;;;;;;;6.35;1.65;;;;;;;;;;5123176;27;20034;-66
2022/04/06 12:36:30;;;;;;;4.82;1.30;;;;;;;;;;5104742;27;20055;-66
2022/04/06 12:39:00;;;;;;;6.63;1.60;;;;;;;;;;5123147;27;20119;-66
2022/04/06 12:41:26;;;;;;;7.18;1.95;;;;;;;;;;5103113;27;20420;-66
2022/04/06 12:43:53;;;;;;;7.05;1.55;;;;;;;;;;5119675;27;20122;-66
2022/04/06 12:46:36;;;;;;;6.28;1.50;;;;;;;;;;5100722;27;20042;-66
2022/04/06 12:49:21;;;;;;;6.65;1.50;;;;;;;;;;5105672;27;20364;-66
2022/04/06 12:51:47;;;;;;;7.63;1.60;;;;;;;;;;5105285;27;20034;-65
2022/04/06 12:54:13;;;;;;;6.00;1.48;;;;;;;;;;5141596;27;20111;-66
2022/04/06 12:56:40;;;;;;;5.80;1.52;;;;;;;;;;5103525;27;20050;-66
2022/04/06 12:59:09;;;;;;;5.45;1.70;;;;;;;;;;5122770;27;20085;-66
2022/04/06 13:01:45;;;;;;;5.90;1.40;;;;;;;;;;5120739;27;20110;-66
2022/04/06 13:04:11;;;;;;;7.93;1.52;;;;;;;;;;5122839;27;20806;-66
2022/04/06 13:06:37;;;;;;;5.43;1.48;;;;;;;;;;5102999;27;20225;-66
2022/04/06 13:09:03;;;;;;;4.88;1.30;;;;;;;;;;5122925;27;20095;-66
2022/04/06 13:11:29;;;;;;;5.00;1.55;;;;;;;;;;5101935;27;20035;-66
2022/04/06 13:13:55;;;;;;;5.32;1.40;;;;;;;;;;5141039;27;20108;-66
2022/04/06 13:16:21;;;;;;;6.63;1.50;;;;;;;;;;5120200;27;20361;-66
2022/04/06 13:18:47;;;;;;;6.53;1.52;;;;;;;;;;5122559;27;20046;-66
2022/04/06 13:21:14;;;;;;;7.53;1.65;;;;;;;;;;5120558;27;20043;-66
2022/04/06 13:23:40;;;;;;;6.90;1.33;;;;;;;;;;5122177;27;20046;-65
2022/04/06 13:26:08;;;;;;;6.15;1.88;;;;;;;;;;5117185;27;20072;-66
2022/04/06 13:28:34;;;;;;;7.53;1.90;;;;;;;;;;5140631;27;20134;-65
2022/04/06 13:31:01;;;;;;;6.38;1.80;;;;;;;;;;5138963;27;20726;-66
2022/04/06 13:33:27;;;;;;;6.43;1.30;;;;;;;;;;5122642;27;20102;-66
2022/04/06 13:35:54;;;;;;;6.65;1.05;;;;;;;;;;5120153;27;20056;-66
2022/04/06 13:38:20;;;;;;;5.00;1.52;;;;;;;;;;5122415;27;20042;-66
2022/04/06 13:40:46;;;;;;;8.88;1.67;;;;;;;;;;5119600;27;20525;-67
2022/04/06 13:43:12;;;;;;;5.82;1.50;;;;;;;;;;5121732;27;20046;-66
2022/04/06 13:45:38;;;;;;;6.50;1.30;;;;;;;;;;5120223;27;20559;-67
2022/04/06 13:48:04;;;;;;;5.18;1.42;;;;;;;;;;5122313;27;20046;-67
2022/04/06 13:50:30;;;;;;;5.57;1.40;;;;;;;;;;5120182;27;20031;-67
2022/04/06 13:52:56;;;;;;;5.53;1.60;;;;;;;;;;5122103;27;20030;-65
2022/04/06 13:55:22;;;;;;;5.93;1.30;;;;;;;;;;5119716;27;20074;-65
2022/04/06 13:57:49;;;;;;;7.32;1.42;;;;;;;;;;5140632;27;20363;-65
2022/04/06 14:00:15;;;;;;;6.97;1.95;;;;;;;;;;5119462;27;20483;-66
2022/04/06 14:02:42;;;;;;;6.35;1.55;;;;;;;;;;5121910;27;20042;-66
2022/04/06 14:05:08;;;;;;;6.47;1.60;;;;;;;;;;5120002;27;20089;-66
2022/04/06 14:07:34;;;;;;;9.88;1.70;;;;;;;;;;5121089;27;20042;-66
2022/04/06 14:10:00;;;;;;;5.82;1.33;;;;;;;;;;5119639;27;20035;-66
2022/04/06 14:12:26;;;;;;;4.63;1.30;;;;;;;;;;5120825;27;20042;-65
2022/04/06 14:14:52;;;;;;;6.22;1.30;;;;;;;;;;5119328;27;20031;-66
2022/04/06 14:17:19;;;;;;;5.13;1.27;;;;;;;;;;5121459;27;20039;-66
2022/04/06 14:19:45;;;;;;;8.30;1.58;;;;;;;;;;5120319;27;20046;-66
2022/04/06 14:22:11;;;;;;;5.35;1.48;;;;;;;;;;5121297;27;20282;-66
2022/04/06 14:25:14;;;;;;;5.70;1.27;;;;;;;;;;5131861;27;20059;-67
2022/04/06 14:27:23;;;;;;;6.85;1.45;;;;;;;;;;5120641;27;20042;-66
2022/04/06 14:29:49;;;;;;;7.43;1.38;;;;;;;;;;5119809;27;20118;-66
2022/04/06 14:32:15;;;;;;;6.95;1.65;;;;;;;;;;5121680;27;20034;-66
2022/04/06 14:34:41;;;;;;;4.75;1.35;;;;;;;;;;5097616;28;20043;-66
2022/04/06 14:37:07;;;;;;;6.05;1.40;;;;;;;;;;5099004;28;20275;-66
2022/04/06 14:39:33;;;;;;;7.32;1.40;;;;;;;;;;5082516;27;20048;-66
2022/04/06 14:41:59;;;;;;;5.72;1.42;;;;;;;;;;5121504;27;20049;-66
2022/04/06 14:44:25;;;;;;;4.43;1.30;;;;;;;;;;5102257;27;20039;-66
2022/04/06 14:46:51;;;;;;;6.65;1.58;;;;;;;;;;5120668;27;20108;-66
2022/04/06 14:49:17;;;;;;;5.63;1.20;;;;;;;;;;5084134;28;20047;-66
2022/04/06 14:51:43;;;;;;;5.43;1.35;;;;;;;;;;5081639;28;20368;-66
2022/04/06 14:54:10;;;;;;;5.57;1.80;;;;;;;;;;5080962;28;20039;-66